GAF120 EDVK-EDDN
Flight info
| Callsign | GAF120 |
|---|---|
| Flight time | 0h 34m |
| Altitude | 31000 |
| Route | ELNAT1E ELNAT DCT FUL DCT DODAS DODAS1V |
| Aircraft | A319/M-SDE3FGHIRWY/LB1 |
Departure
| Time | 2026-05-05 15:38 |
|---|---|
| Airport | Kassel Airport (EDVK) |
Arrival
| Time | 2026-05-05 16:12 |
|---|---|
| Airport | Nuremberg Airport (EDDN) |
| Time | Latitude | Longitude | Altitude | Speed | Heading |
|---|---|---|---|---|---|
| 2026-05-05 15:17 | 51.41824 | 9.38734 | 853 ft | 0 kts | 275° |
| 2026-05-05 15:33 | 51.41836 | 9.38727 | 854 ft | 5 kts | 345° |
| 2026-05-05 15:34 | 51.41859 | 9.38793 | 864 ft | 12 kts | 97° |
| 2026-05-05 15:34 | 51.41913 | 9.38862 | 864 ft | 14 kts | 358° |
| 2026-05-05 15:34 | 51.41948 | 9.38710 | 864 ft | 19 kts | 274° |
| 2026-05-05 15:34 | 51.41962 | 9.38464 | 864 ft | 26 kts | 274° |
| 2026-05-05 15:35 | 51.41978 | 9.38157 | 864 ft | 26 kts | 275° |
| 2026-05-05 15:35 | 51.41991 | 9.37909 | 864 ft | 19 kts | 275° |
| 2026-05-05 15:35 | 51.42001 | 9.37738 | 864 ft | 14 kts | 275° |
| 2026-05-05 15:35 | 51.42010 | 9.37567 | 853 ft | 17 kts | 275° |
| 2026-05-05 15:36 | 51.42053 | 9.37426 | 860 ft | 9 kts | 1° |
| 2026-05-05 15:36 | 51.42128 | 9.37438 | 863 ft | 15 kts | 8° |
| 2026-05-05 15:36 | 51.42169 | 9.37543 | 864 ft | 0 kts | 94° |
| 2026-05-05 15:37 | 51.42157 | 9.37801 | 864 ft | 58 kts | 95° |
| 2026-05-05 15:37 | 51.42101 | 9.38832 | 864 ft | 125 kts | 95° |
| 2026-05-05 15:37 | 51.42019 | 9.40398 | 1270 ft | 144 kts | 94° |
| 2026-05-05 15:38 | 51.41931 | 9.42009 | 1986 ft | 145 kts | 91° |
| 2026-05-05 15:38 | 51.41843 | 9.43621 | 2703 ft | 147 kts | 92° |
| 2026-05-05 15:38 | 51.41749 | 9.45361 | 3170 ft | 168 kts | 92° |
| 2026-05-05 15:38 | 51.41642 | 9.47357 | 3607 ft | 191 kts | 94° |
| 2026-05-05 15:39 | 51.41519 | 9.49626 | 4114 ft | 215 kts | 95° |
| 2026-05-05 15:39 | 51.41382 | 9.52051 | 5068 ft | 221 kts | 96° |
| 2026-05-05 15:39 | 51.41240 | 9.54537 | 6084 ft | 227 kts | 97° |
| 2026-05-05 15:39 | 51.41098 | 9.57077 | 7046 ft | 232 kts | 97° |
| 2026-05-05 15:40 | 51.40797 | 9.59628 | 8018 ft | 235 kts | 112° |
| 2026-05-05 15:40 | 51.39955 | 9.61904 | 8840 ft | 248 kts | 134° |
| 2026-05-05 15:40 | 51.38583 | 9.63763 | 9428 ft | 271 kts | 144° |
| 2026-05-05 15:40 | 51.37033 | 9.65654 | 10079 ft | 290 kts | 145° |
| 2026-05-05 15:41 | 51.35365 | 9.67691 | 10505 ft | 314 kts | 144° |
| 2026-05-05 15:41 | 51.33403 | 9.69477 | 10853 ft | 336 kts | 161° |
| 2026-05-05 15:41 | 51.31138 | 9.70047 | 12035 ft | 322 kts | 181° |
| 2026-05-05 15:41 | 51.28958 | 9.69871 | 13540 ft | 310 kts | 184° |
| 2026-05-05 15:42 | 51.26745 | 9.69675 | 14019 ft | 330 kts | 184° |
| 2026-05-05 15:42 | 51.24369 | 9.69461 | 14252 ft | 354 kts | 184° |
| 2026-05-05 15:42 | 51.21832 | 9.69226 | 14407 ft | 377 kts | 184° |
| 2026-05-05 15:42 | 51.19151 | 9.68931 | 14772 ft | 396 kts | 185° |
| 2026-05-05 15:43 | 51.16371 | 9.68474 | 15353 ft | 402 kts | 187° |
| 2026-05-05 15:43 | 51.13598 | 9.67914 | 16142 ft | 402 kts | 188° |
| 2026-05-05 15:43 | 51.10818 | 9.67311 | 16847 ft | 405 kts | 188° |
| 2026-05-05 15:43 | 51.08016 | 9.66698 | 17493 ft | 408 kts | 188° |
| 2026-05-05 15:44 | 51.05191 | 9.66102 | 18126 ft | 411 kts | 188° |
| 2026-05-05 15:44 | 51.02344 | 9.65526 | 18660 ft | 414 kts | 188° |
| 2026-05-05 15:44 | 50.99476 | 9.64962 | 19201 ft | 417 kts | 187° |
| 2026-05-05 15:44 | 50.96590 | 9.64409 | 19738 ft | 419 kts | 187° |
| 2026-05-05 15:45 | 50.93724 | 9.63867 | 20266 ft | 422 kts | 187° |
| 2026-05-05 15:45 | 50.90802 | 9.63310 | 20758 ft | 424 kts | 187° |
| 2026-05-05 15:45 | 50.87859 | 9.62743 | 21231 ft | 427 kts | 187° |
| 2026-05-05 15:45 | 50.84902 | 9.62173 | 21686 ft | 430 kts | 187° |
| 2026-05-05 15:46 | 50.81924 | 9.61594 | 22120 ft | 432 kts | 187° |
| 2026-05-05 15:46 | 50.78935 | 9.61009 | 22555 ft | 434 kts | 187° |
| 2026-05-05 15:46 | 50.75925 | 9.60423 | 22980 ft | 437 kts | 187° |
| 2026-05-05 15:46 | 50.72901 | 9.59840 | 23391 ft | 439 kts | 187° |
| 2026-05-05 15:47 | 50.69864 | 9.59261 | 23737 ft | 441 kts | 187° |
| 2026-05-05 15:47 | 50.67798 | 9.58869 | 23974 ft | 442 kts | 187° |
| 2026-05-05 15:47 | 50.64726 | 9.58578 | 24318 ft | 445 kts | 179° |
| 2026-05-05 15:47 | 50.61644 | 9.59125 | 24652 ft | 448 kts | 169° |
| 2026-05-05 15:48 | 50.58660 | 9.60564 | 24986 ft | 452 kts | 159° |
| 2026-05-05 15:48 | 50.55867 | 9.62859 | 25312 ft | 456 kts | 149° |
| 2026-05-05 15:48 | 50.53356 | 9.65941 | 25634 ft | 461 kts | 140° |
| 2026-05-05 15:48 | 50.51024 | 9.69399 | 25770 ft | 461 kts | 139° |
| 2026-05-05 15:49 | 50.48688 | 9.72844 | 25793 ft | 461 kts | 139° |
| 2026-05-05 15:49 | 50.46347 | 9.76283 | 25796 ft | 460 kts | 139° |
| 2026-05-05 15:49 | 50.44013 | 9.79700 | 25796 ft | 459 kts | 139° |
| 2026-05-05 15:49 | 50.41678 | 9.83111 | 25797 ft | 459 kts | 139° |
| 2026-05-05 15:50 | 50.39377 | 9.86471 | 25791 ft | 458 kts | 139° |
| 2026-05-05 15:50 | 50.37047 | 9.89876 | 25792 ft | 459 kts | 139° |
| 2026-05-05 15:50 | 50.34713 | 9.93290 | 25792 ft | 458 kts | 139° |
| 2026-05-05 15:50 | 50.32379 | 9.96692 | 25794 ft | 458 kts | 139° |
| 2026-05-05 15:51 | 50.30044 | 10.00091 | 25792 ft | 459 kts | 139° |
| 2026-05-05 15:51 | 50.27708 | 10.03490 | 25791 ft | 459 kts | 139° |
| 2026-05-05 15:51 | 50.25371 | 10.06886 | 25791 ft | 459 kts | 139° |
| 2026-05-05 15:51 | 50.23033 | 10.10279 | 25791 ft | 459 kts | 139° |
| 2026-05-05 15:52 | 50.20697 | 10.13665 | 25788 ft | 459 kts | 139° |
| 2026-05-05 15:52 | 50.18356 | 10.17047 | 25790 ft | 458 kts | 139° |
| 2026-05-05 15:52 | 50.16023 | 10.20417 | 25791 ft | 457 kts | 139° |
| 2026-05-05 15:52 | 50.13689 | 10.23782 | 25791 ft | 457 kts | 139° |
| 2026-05-05 15:53 | 50.11351 | 10.27147 | 25794 ft | 457 kts | 139° |
| 2026-05-05 15:53 | 50.09016 | 10.30502 | 25791 ft | 457 kts | 139° |
| 2026-05-05 15:53 | 50.06678 | 10.33863 | 25792 ft | 457 kts | 139° |
| 2026-05-05 15:53 | 50.04341 | 10.37214 | 25791 ft | 457 kts | 139° |
| 2026-05-05 15:54 | 50.02004 | 10.40562 | 25792 ft | 457 kts | 139° |
| 2026-05-05 15:54 | 49.99662 | 10.43913 | 25791 ft | 457 kts | 139° |
| 2026-05-05 15:54 | 49.97325 | 10.47252 | 25791 ft | 457 kts | 139° |
| 2026-05-05 15:54 | 49.94979 | 10.50596 | 25791 ft | 457 kts | 139° |
| 2026-05-05 15:55 | 49.92640 | 10.53924 | 25794 ft | 456 kts | 140° |
| 2026-05-05 15:55 | 49.90301 | 10.57246 | 25793 ft | 455 kts | 140° |
| 2026-05-05 15:55 | 49.87964 | 10.60559 | 25792 ft | 455 kts | 140° |
| 2026-05-05 15:55 | 49.85626 | 10.63869 | 25791 ft | 455 kts | 140° |
| 2026-05-05 15:56 | 49.83124 | 10.66852 | 25795 ft | 452 kts | 149° |
| 2026-05-05 15:56 | 49.80363 | 10.69152 | 25794 ft | 450 kts | 158° |
| 2026-05-05 15:56 | 49.77424 | 10.70757 | 25491 ft | 445 kts | 166° |
| 2026-05-05 15:56 | 49.74381 | 10.71627 | 24475 ft | 448 kts | 175° |
| 2026-05-05 15:57 | 49.71271 | 10.72305 | 24179 ft | 455 kts | 167° |
| 2026-05-05 15:57 | 49.68306 | 10.73985 | 23447 ft | 452 kts | 154° |
| 2026-05-05 15:57 | 49.65733 | 10.76699 | 22165 ft | 446 kts | 140° |
| 2026-05-05 15:57 | 49.63731 | 10.80296 | 20951 ft | 440 kts | 125° |
| 2026-05-05 15:58 | 49.62407 | 10.84514 | 19787 ft | 436 kts | 110° |
| 2026-05-05 15:58 | 49.61823 | 10.89066 | 18673 ft | 431 kts | 99° |
| 2026-05-05 15:58 | 49.61468 | 10.93602 | 17546 ft | 421 kts | 100° |
| 2026-05-05 15:58 | 49.61053 | 10.98021 | 16394 ft | 413 kts | 101° |
| 2026-05-05 15:59 | 49.60603 | 11.02353 | 15305 ft | 406 kts | 102° |
| 2026-05-05 15:59 | 49.60143 | 11.06607 | 14267 ft | 400 kts | 101° |
| 2026-05-05 15:59 | 49.59692 | 11.10807 | 13272 ft | 395 kts | 101° |
| 2026-05-05 15:59 | 49.59257 | 11.14962 | 12422 ft | 390 kts | 101° |
| 2026-05-05 16:00 | 49.58844 | 11.19053 | 11620 ft | 383 kts | 101° |
| 2026-05-05 16:00 | 49.58452 | 11.23035 | 11221 ft | 366 kts | 101° |
| 2026-05-05 16:00 | 49.58085 | 11.26809 | 11063 ft | 349 kts | 101° |
| 2026-05-05 16:00 | 49.57730 | 11.30431 | 10925 ft | 335 kts | 101° |
| 2026-05-05 16:01 | 49.57382 | 11.33916 | 10794 ft | 322 kts | 101° |
| 2026-05-05 16:01 | 49.57046 | 11.37253 | 10667 ft | 307 kts | 101° |
| 2026-05-05 16:01 | 49.56724 | 11.40438 | 10522 ft | 295 kts | 101° |
| 2026-05-05 16:01 | 49.56409 | 11.43537 | 10232 ft | 291 kts | 101° |
| 2026-05-05 16:02 | 49.56095 | 11.46606 | 9888 ft | 289 kts | 101° |
| 2026-05-05 16:02 | 49.55783 | 11.49659 | 9520 ft | 288 kts | 101° |
| 2026-05-05 16:02 | 49.55471 | 11.52689 | 9121 ft | 286 kts | 101° |
| 2026-05-05 16:02 | 49.55164 | 11.55671 | 8715 ft | 285 kts | 101° |
| 2026-05-05 16:03 | 49.54851 | 11.58684 | 8318 ft | 284 kts | 102° |
| 2026-05-05 16:03 | 49.54181 | 11.61492 | 7939 ft | 278 kts | 126° |
| 2026-05-05 16:03 | 49.52807 | 11.63508 | 7535 ft | 273 kts | 152° |
| 2026-05-05 16:03 | 49.51022 | 11.64352 | 7118 ft | 269 kts | 178° |
| 2026-05-05 16:04 | 49.49172 | 11.64067 | 6735 ft | 267 kts | 191° |
| 2026-05-05 16:04 | 49.47347 | 11.63567 | 6386 ft | 265 kts | 196° |
| 2026-05-05 16:04 | 49.45776 | 11.62194 | 5933 ft | 261 kts | 226° |
| 2026-05-05 16:04 | 49.44890 | 11.59766 | 5454 ft | 259 kts | 257° |
| 2026-05-05 16:05 | 49.44913 | 11.57106 | 5297 ft | 249 kts | 278° |
| 2026-05-05 16:05 | 49.45181 | 11.54518 | 5149 ft | 241 kts | 278° |
| 2026-05-05 16:05 | 49.45431 | 11.52011 | 4996 ft | 233 kts | 278° |
| 2026-05-05 16:05 | 49.45666 | 11.49628 | 4824 ft | 218 kts | 277° |
| 2026-05-05 16:06 | 49.45893 | 11.47397 | 4623 ft | 205 kts | 277° |
| 2026-05-05 16:06 | 49.46106 | 11.45307 | 4422 ft | 191 kts | 277° |
| 2026-05-05 16:06 | 49.46307 | 11.43334 | 4168 ft | 183 kts | 277° |
| 2026-05-05 16:06 | 49.46498 | 11.41465 | 4020 ft | 171 kts | 277° |
| 2026-05-05 16:07 | 49.46674 | 11.39731 | 3955 ft | 157 kts | 277° |
| 2026-05-05 16:07 | 49.46833 | 11.38164 | 3952 ft | 141 kts | 277° |
| 2026-05-05 16:07 | 49.46979 | 11.36718 | 3955 ft | 133 kts | 277° |
| 2026-05-05 16:07 | 49.47119 | 11.35331 | 3958 ft | 130 kts | 277° |
| 2026-05-05 16:08 | 49.47257 | 11.33965 | 3957 ft | 129 kts | 277° |
| 2026-05-05 16:08 | 49.47409 | 11.32451 | 3918 ft | 155 kts | 277° |
| 2026-05-05 16:08 | 49.47577 | 11.30789 | 3735 ft | 158 kts | 277° |
| 2026-05-05 16:08 | 49.47745 | 11.29120 | 3537 ft | 158 kts | 277° |
| 2026-05-05 16:09 | 49.47911 | 11.27471 | 3344 ft | 155 kts | 277° |
| 2026-05-05 16:09 | 49.48076 | 11.25830 | 3145 ft | 157 kts | 277° |
| 2026-05-05 16:09 | 49.48247 | 11.24120 | 2976 ft | 165 kts | 276° |
| 2026-05-05 16:09 | 49.48423 | 11.22364 | 2771 ft | 166 kts | 277° |
| 2026-05-05 16:10 | 49.48600 | 11.20600 | 2535 ft | 168 kts | 278° |
| 2026-05-05 16:10 | 49.48772 | 11.18869 | 2327 ft | 162 kts | 278° |
| 2026-05-05 16:10 | 49.48942 | 11.17169 | 2106 ft | 161 kts | 276° |
| 2026-05-05 16:10 | 49.49111 | 11.15463 | 1881 ft | 158 kts | 276° |
| 2026-05-05 16:11 | 49.49267 | 11.13930 | 1649 ft | 138 kts | 277° |
| 2026-05-05 16:11 | 49.49648 | 11.10051 | 1166 ft | 115 kts | 276° |
| 2026-05-05 16:12 | 49.49769 | 11.08881 | 1037 ft | 99 kts | 278° |
| 2026-05-05 16:12 | 49.49871 | 11.07631 | 1032 ft | 17 kts | 230° |
| 2026-05-05 16:13 | 49.49736 | 11.07720 | 1033 ft | 0 kts | 153° |
| 2026-05-05 16:13 | 49.49728 | 11.07726 | 1033 ft | 4 kts | 153° |
| 2026-05-05 16:13 | 49.49679 | 11.07763 | 1032 ft | 11 kts | 154° |
| 2026-05-05 16:14 | 49.49569 | 11.07936 | 1030 ft | 16 kts | 98° |
| 2026-05-05 16:14 | 49.49535 | 11.08301 | 1032 ft | 10 kts | 98° |
| 2026-05-05 16:15 | 49.49545 | 11.08433 | 1034 ft | 7 kts | 9° |
| 2026-05-05 16:15 | 49.49561 | 11.08438 | 1033 ft | 0 kts | 12° |